Aviation Digital Data Service (ADDS)

Output produced by METARs form (0052 UTC 22 September 2017)
found at http://www.aviationweather.gov/adds/metars/
 
TAF EGYP 212229Z 2200/2218 31020G30KT 9999 FEW025 
     BECMG 2206/2209 24014KT 
     BECMG 2209/2212 19016KT